Time;durP1;ratioP1;P1;durP2;ratioP2;P2;SDS_P1;SDS_P2;PMS_P1;PMS_P2;Temp;Humidity;BMP_temperature;BMP_pressure;BME280_temperature;BME280_humidity;BME280_pressure;Samples;Min_cycle;Max_cycle;Signal;HPM_P1;HPM_P2
2023/10/05 00:02:23;;;;;;;;;12.00;12.00;;;;;26.43;36.23;101832.31;116683;1179;92419;-61
2023/10/05 00:04:52;;;;;;;;;11.50;11.50;;;;;26.41;36.21;101826.36;116519;1180;74384;-61
2023/10/05 00:07:23;;;;;;;;;15.00;15.00;;;;;26.39;36.22;101827.29;116278;1181;91670;-60
2023/10/05 00:09:52;;;;;;;;;12.00;12.00;;;;;26.38;36.07;101825.27;116294;1180;94436;-61
2023/10/05 00:12:23;;;;;;;;;12.50;11.50;;;;;26.37;36.21;101826.88;116305;1180;92694;-60
2023/10/05 00:15:14;;;;;;;;;14.00;10.50;;;;;26.36;36.12;101824.64;116326;1191;73297;-61
2023/10/05 00:17:43;;;;;;;;;10.50;10.50;;;;;26.37;36.17;101822.41;116545;1179;90887;-61
2023/10/05 00:20:25;;;;;;;;;13.50;12.50;;;;;26.36;36.22;101822.88;116303;1187;94858;-61
2023/10/05 00:22:53;;;;;;;;;10.50;10.00;;;;;26.36;36.20;101831.27;116247;1180;92381;-61
2023/10/05 00:25:26;;;;;;;;;13.00;13.00;;;;;26.36;36.16;101833.41;116247;1192;74152;-62
2023/10/05 00:28:00;;;;;;;;;11.00;11.00;;;;;26.38;36.09;101831.30;116382;1187;90704;-61
2023/10/05 00:30:28;;;;;;;;;10.00;10.00;;;;;26.39;36.08;101830.12;116257;1180;93349;-61
2023/10/05 00:32:59;;;;;;;;;12.50;11.00;;;;;26.37;36.31;101829.51;116576;1190;92430;-61
2023/10/05 00:35:29;;;;;;;;;10.00;10.00;;;;;26.35;36.22;101827.91;116364;1191;73923;-61
2023/10/05 00:38:12;;;;;;;;;12.00;11.00;;;;;26.36;36.21;101829.29;116273;1182;90036;-60
2023/10/05 00:40:54;;;;;;;;;11.50;11.00;;;;;26.37;36.25;101831.95;116487;1181;94508;-60
2023/10/05 00:45:52;;;;;;;;;11.50;10.00;;;;;26.43;36.19;101828.80;116504;1180;72416;-61
2023/10/05 00:48:34;;;;;;;;;11.50;11.50;;;;;26.42;36.10;101829.99;116559;1184;90136;-61
2023/10/05 00:51:09;;;;;;;;;10.00;9.50;;;;;26.41;36.14;101831.46;116103;1183;94449;-62
2023/10/05 00:53:39;;;;;;;;;10.00;10.00;;;;;26.41;35.92;101832.05;116253;1182;91788;-61
2023/10/05 00:56:08;;;;;;;;;13.00;12.00;;;;;26.39;36.12;101827.50;116135;1192;73079;-61
2023/10/05 00:58:42;;;;;;;;;11.00;11.00;;;;;26.37;36.39;101825.45;116154;1182;90167;-61
2023/10/05 01:01:27;;;;;;;;;11.00;11.00;;;;;26.37;36.16;101826.42;116135;1182;94344;-61
2023/10/05 01:06:54;;;;;;;;;10.00;10.00;;;;;26.38;36.15;101844.98;116168;1182;73475;-61
2023/10/05 01:14:50;;;;;;;;;9.00;9.00;;;;;26.38;36.19;101840.24;116560;1192;92303;-61
2023/10/05 01:17:21;;;;;;;;;10.50;10.00;;;;;26.38;36.24;101847.60;116437;1180;73446;-60
2023/10/05 01:19:56;;;;;;;;;10.00;10.00;;;;;26.39;36.16;101850.88;116264;1192;90447;-61
2023/10/05 01:22:33;;;;;;;;;14.00;11.00;;;;;26.39;36.24;101851.86;116520;1180;94581;-62
2023/10/05 01:25:04;;;;;;;;;11.00;11.00;;;;;26.38;36.20;101850.13;116537;1189;92181;-62
2023/10/05 01:27:33;;;;;;;;;10.50;10.50;;;;;26.38;36.09;101853.58;116242;1180;73538;-61
2023/10/05 01:30:07;;;;;;;;;13.00;12.00;;;;;26.37;36.36;101849.54;116580;1183;90609;-61
2023/10/05 01:32:35;;;;;;;;;10.00;10.00;;;;;26.37;36.23;101848.82;116336;1182;95152;-61
2023/10/05 01:35:07;;;;;;;;;14.00;12.50;;;;;26.39;36.29;101849.08;116746;1186;92450;-61
2023/10/05 01:37:45;;;;;;;;;12.00;12.00;;;;;26.45;36.10;101856.83;116461;1180;73202;-61
2023/10/05 01:42:43;;;;;;;;;10.00;10.00;;;;;26.46;36.04;101862.58;116235;1181;94443;-62
2023/10/05 01:45:23;;;;;;;;;10.00;10.00;;;;;26.43;35.93;101868.88;116305;1182;92141;-61
2023/10/05 01:47:52;;;;;;;;;12.00;11.00;;;;;26.41;36.17;101875.10;116343;1180;72865;-61
2023/10/05 01:50:26;;;;;;;;;12.00;10.50;;;;;26.41;36.05;101879.49;116236;1180;90390;-61
2023/10/05 01:53:06;;;;;;;;;10.50;10.50;;;;;26.40;36.18;101878.61;116547;1179;93431;-61
2023/10/05 01:55:36;;;;;;;;;13.00;11.00;;;;;26.40;36.21;101875.99;116261;1190;91065;-61
2023/10/05 01:58:05;;;;;;;;;11.50;10.50;;;;;26.40;36.05;101879.36;116284;1180;73508;-62
2023/10/05 02:00:37;;;;;;;;;10.00;10.00;;;;;26.37;36.34;101879.67;116550;1180;89085;-61
2023/10/05 02:03:12;;;;;;;;;16.50;13.50;;;;;26.37;36.17;101882.16;116542;1192;93852;-61
2023/10/05 02:05:44;;;;;;;;;9.50;9.50;;;;;26.38;36.19;101883.52;116547;1180;92709;-60
2023/10/05 02:08:14;;;;;;;;;12.50;11.00;;;;;26.37;36.11;101891.84;116556;1179;73685;-61
2023/10/05 02:10:52;;;;;;;;;10.50;10.50;;;;;26.37;36.26;101894.81;116558;1192;90229;-61
2023/10/05 02:13:23;;;;;;;;;12.00;11.50;;;;;26.36;36.07;101893.77;116547;1180;94040;-61
2023/10/05 02:15:53;;;;;;;;;9.00;9.00;;;;;26.36;36.25;101899.47;116549;1180;92168;-62
2023/10/05 02:18:24;;;;;;;;;10.50;10.50;;;;;26.35;36.15;101900.40;116585;1180;72570;-60
2023/10/05 02:21:06;;;;;;;;;9.00;9.00;;;;;26.34;36.25;101901.54;116292;1180;91137;-61
2023/10/05 02:23:40;;;;;;;;;11.50;11.50;;;;;26.37;36.24;101903.22;116590;1180;94493;-63
2023/10/05 02:26:23;;;;;;;;;10.00;10.00;;;;;26.38;36.21;101912.11;116291;1182;91024;-61
2023/10/05 02:28:51;;;;;;;;;15.00;12.50;;;;;26.40;36.19;101917.94;116325;1180;73422;-61
2023/10/05 02:31:22;;;;;;;;;10.00;9.00;;;;;26.40;36.14;101917.22;116500;1193;91368;-61
2023/10/05 02:33:52;;;;;;;;;9.00;9.00;;;;;26.37;36.03;101922.51;116156;1183;95118;-60
2023/10/05 02:36:26;;;;;;;;;10.00;10.00;;;;;26.36;36.26;101922.33;116296;1182;91799;-60
2023/10/05 02:38:54;;;;;;;;;12.50;11.00;;;;;26.36;36.17;101926.21;116167;1195;73662;-61
2023/10/05 02:41:25;;;;;;;;;10.00;10.00;;;;;26.35;36.23;101931.41;116129;1182;91079;-60
2023/10/05 02:43:53;;;;;;;;;11.00;10.00;;;;;26.34;36.16;101932.35;116164;1183;94656;-60
2023/10/05 02:46:24;;;;;;;;;13.00;11.00;;;;;26.33;36.27;101931.34;115799;1190;92662;-60
2023/10/05 02:48:52;;;;;;;;;11.00;11.00;;;;;26.33;36.30;101934.68;115962;1189;72992;-62
2023/10/05 02:51:21;;;;;;;;;10.00;10.00;;;;;26.33;36.09;101935.23;115617;1196;89846;-61
2023/10/05 02:53:56;;;;;;;;;9.00;9.00;;;;;26.32;36.08;101931.18;115883;1196;93926;-61
2023/10/05 02:56:28;;;;;;;;;12.00;11.00;;;;;26.31;36.39;101931.27;115833;1190;92598;-61
2023/10/05 02:59:07;;;;;;;;;11.00;11.00;;;;;26.31;36.25;101928.35;115797;1186;73658;-60
2023/10/05 03:01:37;;;;;;;;;10.00;9.00;;;;;26.31;36.11;101928.17;115704;1187;90453;-61
2023/10/05 03:04:10;;;;;;;;;10.00;8.00;;;;;26.32;36.03;101930.80;115798;1193;94948;-61
2023/10/05 03:06:39;;;;;;;;;9.00;9.00;;;;;26.31;36.20;101928.73;115560;1187;91966;-61
2023/10/05 03:09:08;;;;;;;;;11.50;11.50;;;;;26.29;36.25;101927.63;115832;1189;73596;-62
2023/10/05 03:11:38;;;;;;;;;14.50;10.50;;;;;26.29;36.21;101931.39;115917;1185;90028;-62
2023/10/05 03:14:12;;;;;;;;;10.00;10.00;;;;;26.28;36.20;101934.05;115975;1187;94429;-62
2023/10/05 03:16:48;;;;;;;;;10.50;10.50;;;;;26.28;36.29;101935.65;116388;1181;92024;-62
2023/10/05 03:19:20;;;;;;;;;10.50;9.00;;;;;26.29;36.18;101937.98;116575;1181;74033;-64
2023/10/05 03:21:57;;;;;;;;;9.00;9.00;;;;;26.29;36.10;101936.28;116337;1190;90898;-61
2023/10/05 03:24:29;;;;;;;;;10.00;10.00;;;;;26.30;36.11;101934.17;116343;1181;93659;-60
2023/10/05 03:26:58;;;;;;;;;10.50;10.50;;;;;26.31;36.26;101937.09;116576;1180;91363;-61
2023/10/05 03:29:35;;;;;;;;;10.50;10.50;;;;;26.31;36.05;101932.95;116614;1179;73020;-61
2023/10/05 03:34:37;;;;;;;;;10.50;10.00;;;;;26.31;36.12;101936.78;116596;1180;95379;-62
2023/10/05 03:37:12;;;;;;;;;9.50;9.00;;;;;26.30;36.07;101933.96;116638;1182;92248;-62
2023/10/05 03:39:52;;;;;;;;;12.50;12.50;;;;;26.37;36.06;101938.34;116731;1180;73607;-62
2023/10/05 03:42:23;;;;;;;;;10.00;10.00;;;;;26.43;36.02;101935.96;116572;1180;91103;-61
2023/10/05 03:45:03;;;;;;;;;10.00;10.00;;;;;26.45;35.87;101934.95;116767;1189;95399;-62
2023/10/05 03:47:37;;;;;;;;;10.00;10.00;;;;;26.50;35.83;101935.70;115960;1183;91905;-62
2023/10/05 03:50:16;;;;;;;;;12.00;10.00;;;;;26.48;35.79;101944.18;116268;1192;73473;-62
2023/10/05 03:52:46;;;;;;;;;9.00;9.00;;;;;26.46;35.74;101941.58;116167;1183;90737;-63
2023/10/05 03:55:20;;;;;;;;;14.50;14.50;;;;;26.44;35.75;101941.75;115978;1185;94068;-63
2023/10/05 03:57:49;;;;;;;;;12.50;12.50;;;;;26.38;35.94;101938.17;116303;1182;91908;-62
2023/10/05 04:02:46;;;;;;;;;15.00;14.50;;;;;26.35;33.73;101942.61;116114;1194;90361;-62
2023/10/05 10:07:50;;;;;;;;;10.00;10.00;;;;;24.98;36.75;101957.48;115070;1200;61546;-74
2023/10/05 10:10:24;;;;;;;;;15.00;13.00;;;;;25.32;35.48;101949.57;115949;1190;90975;-72
2023/10/05 10:12:52;;;;;;;;;12.00;10.50;;;;;25.67;33.99;101948.20;116163;1192;95350;-70
2023/10/05 10:15:31;;;;;;;;;10.00;10.00;;;;;25.96;33.27;101944.35;115912;1187;90564;-66
2023/10/05 10:18:06;;;;;;;;;11.50;10.00;;;;;26.22;32.57;101944.41;116024;1185;73940;-65
2023/10/05 10:20:37;;;;;;;;;11.00;11.00;;;;;26.42;31.73;101939.92;115892;1196;90186;-65
2023/10/05 10:23:21;;;;;;;;;12.00;12.00;;;;;26.55;31.48;101937.36;115911;1186;93291;-65
2023/10/05 10:25:50;;;;;;;;;11.00;10.50;;;;;26.66;31.78;101928.86;115930;1185;90664;-65
2023/10/05 10:29:11;;;;;;;;;12.50;11.00;;;;;26.74;31.01;101929.42;115863;1190;73722;-65
2023/10/05 10:31:30;;;;;;;;;14.00;13.00;;;;;26.91;30.67;101929.32;115942;1183;90677;-65
2023/10/05 10:34:28;;;;;;;;;17.00;14.50;;;;;27.04;30.32;101925.27;115867;1187;94850;-63
2023/10/05 10:36:57;;;;;;;;;15.50;14.00;;;;;27.09;30.15;101923.27;115554;1190;91310;-66
2023/10/05 10:39:29;;;;;;;;;11.00;10.00;;;;;27.12;29.98;101920.30;115591;1189;74306;-66
2023/10/05 10:42:07;;;;;;;;;11.00;10.00;;;;;27.14;29.78;101912.64;115634;1188;90802;-65
2023/10/05 10:44:57;;;;;;;;;10.00;10.00;;;;;27.17;29.86;101908.23;115568;1190;94463;-66
2023/10/05 10:47:27;;;;;;;;;12.50;12.50;;;;;27.20;29.90;101908.40;115590;1188;91672;-64
2023/10/05 10:50:22;;;;;;;;;11.50;11.50;;;;;27.21;30.01;101900.41;115861;1196;73928;-64
2023/10/05 10:52:50;;;;;;;;;23.00;19.50;;;;;27.32;29.77;101898.41;115430;1200;91172;-64
2023/10/05 10:55:21;;;;;;;;;13.00;12.50;;;;;27.45;29.43;101896.92;115536;1189;95101;-64
2023/10/05 10:57:53;;;;;;;;;14.00;14.00;;;;;27.45;29.66;101895.21;115551;1197;91715;-65
2023/10/05 11:00:54;;;;;;;;;17.00;16.00;;;;;27.43;29.41;101896.29;115584;1202;73585;-68
2023/10/05 11:03:27;;;;;;;;;12.00;11.50;;;;;27.46;29.58;101890.35;115918;1184;91031;-69
2023/10/05 11:05:55;;;;;;;;;12.50;12.50;;;;;27.45;29.60;101884.88;115762;1187;95038;-68
2023/10/05 11:08:24;;;;;;;;;15.00;15.00;;;;;27.45;29.62;101881.95;115866;1187;90443;-67
2023/10/05 11:10:58;;;;;;;;;15.00;13.50;;;;;27.46;29.69;101881.02;115698;1197;72838;-69
2023/10/05 11:13:27;;;;;;;;;14.00;14.00;;;;;27.45;29.51;101875.70;115912;1197;90549;-68
2023/10/05 11:16:03;;;;;;;;;13.00;13.00;;;;;27.44;29.48;101875.58;115975;1195;94014;-70
2023/10/05 11:18:39;;;;;;;;;10.50;10.50;;;;;27.47;29.48;101876.70;116022;1187;91050;-67
2023/10/05 11:21:16;;;;;;;;;15.00;15.00;;;;;27.52;29.09;101873.67;115824;1186;74495;-67
2023/10/05 11:23:58;;;;;;;;;13.50;13.00;;;;;27.57;29.17;101871.69;115977;1197;90640;-66
2023/10/05 11:26:33;;;;;;;;;12.00;12.00;;;;;27.64;28.76;101863.00;115766;1192;93864;-66
2023/10/05 11:29:28;;;;;;;;;13.50;12.00;;;;;27.67;28.64;101861.45;115777;1187;91241;-65
2023/10/05 11:32:03;;;;;;;;;12.00;12.00;;;;;27.73;28.53;101862.81;115875;1185;73855;-66
2023/10/05 11:34:55;;;;;;;;;11.67;10.67;;;;;27.78;28.14;101857.20;115846;1187;90908;-66
2023/10/05 11:37:58;;;;;;;;;12.00;10.50;;;;;27.88;27.81;101854.52;115906;1185;94428;-66
2023/10/05 11:40:35;;;;;;;;;14.00;14.00;;;;;27.92;27.85;101851.48;115909;1186;91580;-65
2023/10/05 11:43:12;;;;;;;;;12.00;11.50;;;;;27.92;27.75;101852.36;115765;1185;72884;-65
2023/10/05 11:46:23;;;;;;;;;13.00;12.00;;;;;27.87;28.30;101847.80;116073;1185;90542;-66
2023/10/05 11:48:55;;;;;;;;;11.00;11.00;;;;;27.90;28.28;101843.66;115753;1187;94504;-67
2023/10/05 11:51:27;;;;;;;;;12.00;12.00;;;;;27.91;28.13;101836.55;115753;1191;91121;-66
2023/10/05 11:53:56;;;;;;;;;10.33;9.00;;;;;27.91;28.36;101835.20;115863;1187;73640;-67
2023/10/05 11:56:30;;;;;;;;;12.00;12.00;;;;;27.88;27.93;101825.51;115914;1187;91042;-67
2023/10/05 11:59:02;;;;;;;;;13.00;12.00;;;;;27.88;28.06;101821.86;115728;1187;94582;-65
2023/10/05 12:01:32;;;;;;;;;11.50;10.50;;;;;27.86;27.82;101819.48;116005;1186;90773;-68
2023/10/05 12:04:04;;;;;;;;;12.00;11.50;;;;;27.82;28.04;101828.11;115763;1187;74614;-68
2023/10/05 12:06:33;;;;;;;;;13.50;12.00;;;;;27.81;27.70;101824.02;115776;1197;90883;-67
2023/10/05 12:09:03;;;;;;;;;12.00;12.00;;;;;27.80;27.85;101817.11;115885;1187;94578;-67
2023/10/05 12:11:36;;;;;;;;;15.00;13.00;;;;;27.78;28.00;101814.59;116553;1187;90174;-67
2023/10/05 12:14:04;;;;;;;;;12.00;11.50;;;;;27.83;27.96;101812.41;116396;1183;73512;-66
2023/10/05 12:16:34;;;;;;;;;13.50;13.50;;;;;27.85;27.81;101805.70;116153;1184;90805;-68
2023/10/05 12:19:51;;;;;;;;;13.50;13.50;;;;;27.82;27.96;101798.84;116229;1184;94513;-67
2023/10/05 12:21:51;;;;;;;;;13.50;13.00;;;;;27.80;28.24;101793.75;116122;1183;91090;-67
2023/10/05 12:24:19;;;;;;;;;12.00;10.00;;;;;27.81;28.23;101787.14;116033;1187;74920;-73
2023/10/05 12:26:48;;;;;;;;;11.00;11.00;;;;;27.80;28.16;101789.61;115823;1186;91024;-70
2023/10/05 12:29:18;;;;;;;;;12.00;12.00;;;;;27.77;28.08;101783.92;115851;1196;95116;-68
2023/10/05 12:31:49;;;;;;;;;15.00;15.00;;;;;27.77;28.26;101778.44;116026;1183;90799;-68
2023/10/05 12:34:23;;;;;;;;;13.00;13.00;;;;;27.79;28.17;101771.46;116228;1184;73860;-68
2023/10/05 12:36:56;;;;;;;;;13.50;13.00;;;;;27.83;27.96;101763.82;116050;1183;91050;-68
2023/10/05 12:39:27;;;;;;;;;12.00;12.00;;;;;27.83;27.70;101757.16;115977;1186;94301;-67
2023/10/05 12:41:57;;;;;;;;;15.00;15.00;;;;;27.81;27.81;101753.57;116262;1183;91391;-66
2023/10/05 12:44:25;;;;;;;;;16.00;13.50;;;;;27.79;27.77;101747.87;116308;1182;73083;-65
2023/10/05 12:46:53;;;;;;;;;15.00;15.00;;;;;27.80;27.71;101745.24;116408;1194;90417;-66
2023/10/05 12:49:22;;;;;;;;;14.00;12.50;;;;;27.78;27.81;101741.37;116264;1182;94667;-68
2023/10/05 12:51:50;;;;;;;;;15.50;15.50;;;;;27.78;27.72;101735.63;116337;1182;90204;-67
2023/10/05 12:54:18;;;;;;;;;13.00;13.00;;;;;27.78;27.75;101737.83;115826;1194;74621;-67
2023/10/05 12:56:51;;;;;;;;;13.50;13.50;;;;;27.75;27.92;101733.41;115949;1185;90174;-67
2023/10/05 12:59:29;;;;;;;;;12.00;12.00;;;;;27.77;28.02;101730.81;116181;1185;95279;-67
2023/10/05 13:01:57;;;;;;;;;17.00;11.50;;;;;27.80;27.85;101725.30;116070;1197;90364;-67
2023/10/05 13:04:25;;;;;;;;;12.00;12.00;;;;;27.82;28.00;101727.16;116025;1187;73649;-69
2023/10/05 13:06:54;;;;;;;;;13.00;13.00;;;;;27.83;27.92;101727.57;115854;1196;90965;-67
2023/10/05 13:09:23;;;;;;;;;12.00;11.50;;;;;27.84;27.85;101726.02;115658;1200;93917;-67
2023/10/05 13:11:51;;;;;;;;;14.00;14.00;;;;;27.85;28.17;101724.33;115860;1189;90885;-68
2023/10/05 13:14:19;;;;;;;;;12.00;12.00;;;;;27.85;27.96;101717.89;115802;1198;73501;-68
2023/10/05 13:16:48;;;;;;;;;15.00;15.00;;;;;27.85;28.01;101715.52;115878;1186;90545;-66
2023/10/05 13:19:18;;;;;;;;;13.00;13.00;;;;;27.83;27.98;101716.52;115967;1198;95389;-68
2023/10/05 13:21:50;;;;;;;;;12.00;10.00;;;;;27.82;27.98;101712.64;116048;1186;91871;-68
2023/10/05 13:24:18;;;;;;;;;11.50;11.50;;;;;27.82;27.87;101713.52;115792;1187;72649;-67
2023/10/05 13:26:46;;;;;;;;;15.00;15.00;;;;;27.80;27.76;101709.74;116187;1184;91438;-68
2023/10/05 13:29:18;;;;;;;;;13.50;13.00;;;;;27.80;28.09;101707.64;116117;1184;94097;-67
2023/10/05 13:31:46;;;;;;;;;13.00;13.00;;;;;27.80;29.09;101711.66;115966;1186;90206;-72
2023/10/05 13:34:19;;;;;;;;;18.50;14.50;;;;;27.76;30.56;101710.98;116063;1186;72798;-72
2023/10/05 13:36:50;;;;;;;;;14.00;14.00;;;;;27.74;30.74;101707.94;116002;1187;91403;-73
2023/10/05 13:39:21;;;;;;;;;49.67;42.67;;;;;27.70;31.57;101708.52;116106;1187;94660;-71
2023/10/05 13:42:09;;;;;;;;;699.67;567.67;;;;;27.83;34.28;101706.54;116089;1196;91229;-72
2023/10/05 13:44:39;;;;;;;;;463.50;432.00;;;;;28.11;34.64;101697.98;116095;1196;74061;-72
2023/10/05 13:47:11;;;;;;;;;238.33;216.33;;;;;28.28;32.95;101701.32;116107;1184;91290;-70
2023/10/05 13:49:51;;;;;;;;;141.50;131.00;;;;;28.34;32.03;101695.54;115975;1187;94332;-70
2023/10/05 13:52:23;;;;;;;;;134.33;121.00;;;;;28.32;31.39;101692.15;116110;1180;91355;-70
2023/10/05 13:54:58;;;;;;;;;93.00;87.00;;;;;28.28;30.85;101690.14;115985;1197;74162;-68
2023/10/05 13:57:28;;;;;;;;;85.50;75.00;;;;;28.24;30.22;101690.64;116156;1184;90735;-70
2023/10/05 13:59:56;;;;;;;;;67.00;53.00;;;;;28.20;30.13;101690.21;115812;1188;93932;-68
2023/10/05 14:02:27;;;;;;;;;62.00;49.00;;;;;28.20;29.83;101687.56;115721;1193;91682;-70
2023/10/05 14:04:55;;;;;;;;;38.00;31.00;;;;;28.17;30.53;101684.23;115568;1199;72731;-71
2023/10/05 14:07:23;;;;;;;;;23.00;23.00;;;;;28.08;32.40;101685.50;115933;1187;90754;-72
2023/10/05 14:09:52;;;;;;;;;22.50;22.00;;;;;28.04;32.55;101688.95;115636;1190;94747;-72
2023/10/05 14:12:21;;;;;;;;;18.50;18.50;;;;;27.98;32.55;101689.23;115668;1189;90800;-71
2023/10/05 14:14:52;;;;;;;;;16.00;16.00;;;;;27.95;32.40;101693.77;115740;1187;74568;-73
2023/10/05 14:17:21;;;;;;;;;30.50;25.00;;;;;27.95;32.63;101695.20;115832;1188;90406;-75
2023/10/05 14:19:50;;;;;;;;;25.50;25.50;;;;;27.94;33.05;101693.80;116198;1182;94730;-71
2023/10/05 14:22:33;;;;;;;;;28.00;26.33;;;;;27.92;33.48;101690.88;116390;1184;89799;-74
2023/10/05 14:25:07;;;;;;;;;28.00;25.00;;;;;27.93;33.08;101685.84;116041;1185;72922;-70
2023/10/05 14:27:36;;;;;;;;;20.00;19.00;;;;;27.92;32.69;101682.17;116114;1185;90565;-71
2023/10/05 14:30:21;;;;;;;;;22.00;21.00;;;;;27.96;32.45;101679.12;116044;1184;95364;-69
2023/10/05 14:32:50;;;;;;;;;18.00;18.00;;;;;27.95;32.30;101676.16;116174;1187;91302;-70
2023/10/05 14:35:21;;;;;;;;;16.50;16.00;;;;;27.88;31.82;101673.65;116077;1184;72542;-72
2023/10/05 14:37:55;;;;;;;;;;;;;;;27.83;31.55;101673.38;116154;1183;89995;-70
2023/10/05 14:40:26;;;;;;;;;15.00;15.00;;;;;27.78;31.52;101669.55;116284;1183;93941;-68
